Time;durP1;ratioP1;P1;durP2;ratioP2;P2;SDS_P1;SDS_P2;PMS_P1;PMS_P2;Temp;Humidity;BMP_temperature;BMP_pressure;BME280_temperature;BME280_humidity;BME280_pressure;Samples;Min_cycle;Max_cycle;Signal;HPM_P1;HPM_P2
2022/08/07 00:01:01;;;;;;;;;;;13.70;80.40;;;;;;4940661;28;20270;-83
2022/08/07 00:03:27;;;;;;;;;;;13.60;81.40;;;;;;4948924;29;19965;-83
2022/08/07 00:05:53;;;;;;;;;;;13.60;82.20;;;;;;4938554;29;19946;-83
2022/08/07 00:08:21;;;;;;;;;;;13.50;83.10;;;;;;4936503;29;19911;-83
2022/08/07 00:10:47;;;;;;;;;;;13.50;83.30;;;;;;4953528;28;19993;-83
2022/08/07 00:13:13;;;;;;;;;;;13.40;83.90;;;;;;4920354;29;20479;-85
2022/08/07 00:15:39;;;;;;;;;;;13.50;84.90;;;;;;4951885;29;20005;-83
2022/08/07 00:18:05;;;;;;;;;;;13.40;84.70;;;;;;4930107;28;19911;-82
2022/08/07 00:20:31;;;;;;;;;;;13.40;84.70;;;;;;4936328;28;19918;-84
2022/08/07 00:22:56;;;;;;;;;;;13.30;84.90;;;;;;4935846;29;20171;-82
2022/08/07 00:25:23;;;;;;;;;;;13.30;85.00;;;;;;4918351;29;20009;-84
2022/08/07 00:27:49;;;;;;;;;;;13.30;85.70;;;;;;4935710;29;19965;-83
2022/08/07 00:30:15;;;;;;;;;;;13.30;84.60;;;;;;4948892;28;19910;-83
2022/08/07 00:32:41;;;;;;;;;;;13.20;84.40;;;;;;4929690;29;19911;-81
2022/08/07 00:35:07;;;;;;;;;;;13.20;84.00;;;;;;4932486;29;19954;-84
2022/08/07 00:37:33;;;;;;;;;;;13.20;84.40;;;;;;4948655;28;19997;-82
2022/08/07 00:39:58;;;;;;;;;;;13.20;84.50;;;;;;4948700;28;20530;-84
2022/08/07 00:42:24;;;;;;;;;;;13.20;84.70;;;;;;4951751;28;19910;-82
2022/08/07 00:44:50;;;;;;;;;;;13.20;85.50;;;;;;4922828;28;19919;-83
2022/08/07 00:47:15;;;;;;;;;;;13.20;86.00;;;;;;4949371;28;19962;-83
2022/08/07 00:49:41;;;;;;;;;;;13.20;86.10;;;;;;4923079;28;19922;-83
2022/08/07 00:52:07;;;;;;;;;;;13.10;86.20;;;;;;4916583;28;19919;-84
2022/08/07 00:54:33;;;;;;;;;;;13.10;86.30;;;;;;4956795;28;19918;-83
2022/08/07 00:56:59;;;;;;;;;;;13.10;85.60;;;;;;4954184;28;19914;-85
2022/08/07 00:59:25;;;;;;;;;;;13.10;85.70;;;;;;4958628;28;19914;-85
2022/08/07 01:01:50;;;;;;;;;;;13.00;85.90;;;;;;4975942;28;19970;-84
2022/08/07 01:04:17;;;;;;;;;;;13.00;86.30;;;;;;4948917;28;19918;-81
2022/08/07 01:06:43;;;;;;;;;;;13.00;85.90;;;;;;4955540;28;19911;-82
2022/08/07 01:09:09;;;;;;;;;;;13.00;85.70;;;;;;4932939;29;20361;-83
2022/08/07 01:11:35;;;;;;;;;;;13.00;86.20;;;;;;4939265;28;19914;-84
2022/08/07 01:14:01;;;;;;;;;;;13.00;86.20;;;;;;4931100;29;19915;-84
2022/08/07 01:16:27;;;;;;;;;;;13.00;86.80;;;;;;4929585;29;19911;-82
2022/08/07 01:18:53;;;;;;;;;;;13.00;87.90;;;;;;4931483;29;19920;-82
2022/08/07 01:21:22;;;;;;;;;;;13.00;87.40;;;;;;4941700;28;19921;-86
2022/08/07 01:23:50;;;;;;;;;;;12.90;86.40;;;;;;4934454;29;19965;-83
2022/08/07 01:26:16;;;;;;;;;;;12.90;86.00;;;;;;4950328;28;19957;-84
2022/08/07 01:28:44;;;;;;;;;;;12.90;85.70;;;;;;4919597;29;19960;-84
2022/08/07 01:31:12;;;;;;;;;;;12.80;85.90;;;;;;4934912;28;19919;-84
2022/08/07 01:33:38;;;;;;;;;;;12.80;86.20;;;;;;4950438;29;19959;-85
2022/08/07 01:36:05;;;;;;;;;;;12.80;86.20;;;;;;4937716;29;19957;-86
2022/08/07 01:38:32;;;;;;;;;;;12.80;86.60;;;;;;4947748;28;19991;-84
2022/08/07 01:41:08;;;;;;;;;;;12.70;86.60;;;;;;4927222;28;19911;-86
2022/08/07 01:43:35;;;;;;;;;;;12.70;86.80;;;;;;4914996;29;19915;-84
2022/08/07 01:46:01;;;;;;;;;;;12.60;86.50;;;;;;4941745;28;19918;-87
2022/08/07 01:48:27;;;;;;;;;;;12.60;86.20;;;;;;4949954;28;20005;-86
2022/08/07 01:50:56;;;;;;;;;;;12.60;86.10;;;;;;4937310;29;20062;-86
2022/08/07 01:53:24;;;;;;;;;;;12.60;86.30;;;;;;4933993;28;19914;-86
2022/08/07 01:56:00;;;;;;;;;;;12.60;86.50;;;;;;4933330;29;19910;-85
2022/08/07 01:58:27;;;;;;;;;;;12.50;86.30;;;;;;4947107;28;20299;-84
2022/08/07 02:00:56;;;;;;;;;;;12.50;86.30;;;;;;4921633;29;19911;-87
2022/08/07 02:03:22;;;;;;;;;;;12.50;87.40;;;;;;4934138;29;19926;-85
2022/08/07 02:05:52;;;;;;;;;;;12.50;88.80;;;;;;4930975;29;19910;-86
2022/08/07 02:08:23;;;;;;;;;;;12.50;89.80;;;;;;4965646;28;19940;-85
2022/08/07 02:10:53;;;;;;;;;;;12.40;90.00;;;;;;4942947;28;19977;-87
2022/08/07 02:13:21;;;;;;;;;;;12.40;90.00;;;;;;4930485;29;19915;-87
2022/08/07 02:15:51;;;;;;;;;;;12.40;89.50;;;;;;4922387;29;20415;-84
2022/08/07 02:18:18;;;;;;;;;;;12.30;89.60;;;;;;4930513;28;19910;-84
2022/08/07 02:20:45;;;;;;;;;;;12.30;90.00;;;;;;4919822;29;20119;-84
2022/08/07 02:23:12;;;;;;;;;;;12.20;89.60;;;;;;4930244;29;19923;-86
2022/08/07 02:25:39;;;;;;;;;;;12.20;89.50;;;;;;4933596;29;20377;-85
2022/08/07 02:28:05;;;;;;;;;;;12.20;89.40;;;;;;4950060;28;20274;-85
2022/08/07 02:30:33;;;;;;;;;;;12.10;89.20;;;;;;4933580;28;19922;-85
2022/08/07 02:32:59;;;;;;;;;;;12.10;89.10;;;;;;4929837;29;19965;-85
2022/08/07 02:35:25;;;;;;;;;;;12.10;89.90;;;;;;4932579;29;19910;-86
2022/08/07 02:37:55;;;;;;;;;;;12.10;90.00;;;;;;4950299;28;19921;-86
2022/08/07 02:40:21;;;;;;;;;;;12.00;90.00;;;;;;4938467;28;19911;-85
2022/08/07 02:42:47;;;;;;;;;;;12.00;90.20;;;;;;4933534;29;19922;-86
2022/08/07 02:45:15;;;;;;;;;;;12.00;90.30;;;;;;4933419;29;20000;-84
2022/08/07 02:47:41;;;;;;;;;;;12.00;90.00;;;;;;4930390;28;19915;-84
2022/08/07 02:50:13;;;;;;;;;;;12.00;90.20;;;;;;4931257;29;19915;-84
2022/08/07 02:52:50;;;;;;;;;;;12.00;90.10;;;;;;4932180;29;19922;-86
2022/08/07 02:55:18;;;;;;;;;;;11.90;90.70;;;;;;4950996;28;19911;-86
2022/08/07 02:57:45;;;;;;;;;;;11.90;91.20;;;;;;4934611;29;20009;-85
2022/08/07 03:00:12;;;;;;;;;;;11.90;91.00;;;;;;4953495;29;20448;-85
2022/08/07 03:02:40;;;;;;;;;;;11.80;90.80;;;;;;4937455;29;19916;-86
2022/08/07 03:05:07;;;;;;;;;;;11.80;90.80;;;;;;4936454;29;19914;-84
2022/08/07 03:07:33;;;;;;;;;;;11.80;91.10;;;;;;4919022;29;19922;-84
2022/08/07 03:09:59;;;;;;;;;;;11.80;91.10;;;;;;4918437;29;19919;-85
2022/08/07 03:12:27;;;;;;;;;;;11.70;91.40;;;;;;4933130;29;20297;-84
2022/08/07 03:14:55;;;;;;;;;;;11.60;91.20;;;;;;4949121;28;20382;-85
2022/08/07 03:17:21;;;;;;;;;;;11.60;91.30;;;;;;4948732;28;19926;-85
2022/08/07 03:19:47;;;;;;;;;;;11.60;91.40;;;;;;4934279;29;19997;-86
2022/08/07 03:22:14;;;;;;;;;;;11.60;91.70;;;;;;4921229;29;19922;-86
2022/08/07 03:24:40;;;;;;;;;;;11.50;91.80;;;;;;4920254;29;20448;-85
2022/08/07 03:27:06;;;;;;;;;;;11.60;91.70;;;;;;4952995;28;19954;-85
2022/08/07 03:29:50;;;;;;;;;;;11.50;91.70;;;;;;4953034;28;19932;-85
2022/08/07 03:32:20;;;;;;;;;;;11.50;91.70;;;;;;4936358;29;20549;-84
2022/08/07 03:34:47;;;;;;;;;;;11.50;91.90;;;;;;4916927;29;19915;-86
2022/08/07 03:37:13;;;;;;;;;;;11.50;92.00;;;;;;4931161;29;20275;-85
2022/08/07 03:39:42;;;;;;;;;;;11.50;92.00;;;;;;4949108;28;19910;-84
2022/08/07 03:42:09;;;;;;;;;;;11.50;92.00;;;;;;4952869;28;19910;-85
2022/08/07 03:44:36;;;;;;;;;;;11.50;91.80;;;;;;4935929;29;20549;-85
2022/08/07 03:47:03;;;;;;;;;;;11.50;91.70;;;;;;4948336;28;20019;-87
2022/08/07 03:49:29;;;;;;;;;;;11.50;91.80;;;;;;4938417;29;20386;-86
2022/08/07 03:51:56;;;;;;;;;;;11.50;91.90;;;;;;4936601;29;19918;-86
2022/08/07 03:54:22;;;;;;;;;;;11.50;92.20;;;;;;4919469;28;19926;-85
2022/08/07 03:56:48;;;;;;;;;;;11.50;92.60;;;;;;4938490;29;19915;-84
2022/08/07 03:59:14;;;;;;;;;;;11.40;93.30;;;;;;4933506;29;19914;-85
2022/08/07 04:01:44;;;;;;;;;;;11.40;93.40;;;;;;4933057;29;19914;-85
2022/08/07 04:04:10;;;;;;;;;;;11.40;93.50;;;;;;4936447;28;19918;-85
2022/08/07 04:06:36;;;;;;;;;;;11.30;93.60;;;;;;4957055;28;19911;-84
2022/08/07 04:09:02;;;;;;;;;;;11.30;93.70;;;;;;4933422;29;19921;-86
2022/08/07 04:11:28;;;;;;;;;;;11.30;94.00;;;;;;4952411;28;20357;-84
2022/08/07 04:13:55;;;;;;;;;;;11.30;93.90;;;;;;4935793;28;19915;-83
2022/08/07 04:16:21;;;;;;;;;;;11.30;93.70;;;;;;4922125;28;19919;-85
2022/08/07 04:18:47;;;;;;;;;;;11.30;94.10;;;;;;4932803;29;19919;-86
2022/08/07 04:21:14;;;;;;;;;;;11.20;94.20;;;;;;4908020;29;19938;-85
2022/08/07 04:23:40;;;;;;;;;;;11.20;94.60;;;;;;4932368;28;20364;-82
2022/08/07 04:26:06;;;;;;;;;;;11.30;94.80;;;;;;4927692;28;19954;-83
2022/08/07 04:28:32;;;;;;;;;;;11.20;94.80;;;;;;4942230;29;19950;-87
2022/08/07 04:30:58;;;;;;;;;;;11.30;94.90;;;;;;4939365;28;19922;-84
2022/08/07 04:33:31;;;;;;;;;;;11.30;94.70;;;;;;4947917;28;19914;-85
2022/08/07 04:35:57;;;;;;;;;;;11.30;95.00;;;;;;4951308;28;19911;-83
2022/08/07 04:38:26;;;;;;;;;;;11.30;95.10;;;;;;4951900;28;19910;-83
2022/08/07 04:40:52;;;;;;;;;;;11.40;95.40;;;;;;4931624;28;19915;-85
2022/08/07 04:43:32;;;;;;;;;;;11.40;95.70;;;;;;4967387;28;20005;-86
2022/08/07 04:45:58;;;;;;;;;;;11.40;96.00;;;;;;4939562;28;19914;-84
2022/08/07 04:48:31;;;;;;;;;;;11.50;96.40;;;;;;4951645;28;19914;-86
2022/08/07 04:50:57;;;;;;;;;;;11.40;96.80;;;;;;4933633;28;20405;-85
2022/08/07 04:53:27;;;;;;;;;;;11.50;97.40;;;;;;4932034;29;19955;-85
2022/08/07 04:55:58;;;;;;;;;;;11.50;97.60;;;;;;4966509;28;19910;-85
2022/08/07 04:58:32;;;;;;;;;;;11.60;98.00;;;;;;4923423;29;19911;-86
2022/08/07 05:01:02;;;;;;;;;;;11.60;97.80;;;;;;4923241;29;19910;-86
2022/08/07 05:03:30;;;;;;;;;;;11.60;98.10;;;;;;4920834;29;19922;-86
2022/08/07 05:06:25;;;;;;;;;;;11.70;98.40;;;;;;4922050;29;19911;-84
2022/08/07 05:09:11;;;;;;;;;;;11.70;98.60;;;;;;4931850;29;19914;-85
2022/08/07 05:11:45;;;;;;;;;;;11.80;98.70;;;;;;4951576;28;19949;-86
2022/08/07 05:14:18;;;;;;;;;;;11.90;98.70;;;;;;4950696;28;19985;-83
2022/08/07 05:16:46;;;;;;;;;;;11.90;98.70;;;;;;4941456;28;19910;-86
2022/08/07 05:19:19;;;;;;;;;;;12.00;98.80;;;;;;4934914;29;19914;-84
2022/08/07 05:21:48;;;;;;;;;;;12.10;99.20;;;;;;4944354;29;19966;-85
2022/08/07 05:24:18;;;;;;;;;;;12.10;99.10;;;;;;4946918;28;19918;-86
2022/08/07 05:26:45;;;;;;;;;;;12.30;99.20;;;;;;4933131;28;20015;-85
2022/08/07 05:29:13;;;;;;;;;;;12.40;99.20;;;;;;4946060;28;19917;-84
2022/08/07 05:31:39;;;;;;;;;;;12.50;98.90;;;;;;4958434;28;20153;-84
2022/08/07 05:34:10;;;;;;;;;;;12.60;98.40;;;;;;4935128;29;20017;-85
2022/08/07 05:36:42;;;;;;;;;;;12.70;98.30;;;;;;4935726;29;19965;-86
2022/08/07 05:39:16;;;;;;;;;;;12.90;97.70;;;;;;4916732;29;19911;-85
2022/08/07 05:41:43;;;;;;;;;;;13.20;97.30;;;;;;4941181;29;19911;-83
2022/08/07 05:44:09;;;;;;;;;;;13.60;96.50;;;;;;4946882;28;19941;-83
2022/08/07 05:46:36;;;;;;;;;;;14.10;95.90;;;;;;4947709;28;19910;-83
2022/08/07 05:49:04;;;;;;;;;;;14.50;95.20;;;;;;4931366;29;19950;-85
2022/08/07 05:51:33;;;;;;;;;;;15.00;94.10;;;;;;4947517;28;19957;-84
2022/08/07 05:53:59;;;;;;;;;;;15.60;93.70;;;;;;4934526;29;19950;-86
2022/08/07 05:56:27;;;;;;;;;;;16.10;92.90;;;;;;4939846;28;19918;-86
2022/08/07 05:58:53;;;;;;;;;;;16.70;87.50;;;;;;4916113;29;19915;-84
2022/08/07 06:01:24;;;;;;;;;;;17.20;86.10;;;;;;4916547;29;19914;-84
2022/08/07 06:03:52;;;;;;;;;;;17.70;82.40;;;;;;4950839;28;19914;-83
2022/08/07 06:06:18;;;;;;;;;;;18.20;81.80;;;;;;4956212;28;19911;-85
2022/08/07 06:08:44;;;;;;;;;;;18.70;77.90;;;;;;4951028;28;19918;-83
2022/08/07 06:11:11;;;;;;;;;;;19.30;74.60;;;;;;4940353;28;19915;-84
2022/08/07 06:13:36;;;;;;;;;;;19.70;73.10;;;;;;4926381;28;20369;-85
2022/08/07 06:16:02;;;;;;;;;;;20.20;71.30;;;;;;4935089;28;19918;-83
2022/08/07 06:18:29;;;;;;;;;;;20.60;67.80;;;;;;4914994;29;19926;-84
2022/08/07 06:20:55;;;;;;;;;;;21.00;67.20;;;;;;4941130;28;19919;-84
2022/08/07 06:23:21;;;;;;;;;;;21.40;65.30;;;;;;4945681;29;19919;-83
2022/08/07 06:25:47;;;;;;;;;;;21.80;63.30;;;;;;4924475;28;19919;-85
2022/08/07 06:28:13;;;;;;;;;;;22.20;61.80;;;;;;4929937;29;19921;-86
2022/08/07 06:30:39;;;;;;;;;;;22.60;60.40;;;;;;4935345;29;19914;-82
2022/08/07 06:33:18;;;;;;;;;;;23.00;58.90;;;;;;4947096;29;19922;-84
2022/08/07 06:35:45;;;;;;;;;;;23.40;58.00;;;;;;4947923;28;19918;-84
2022/08/07 06:38:12;;;;;;;;;;;23.80;56.40;;;;;;4934298;29;20005;-84
2022/08/07 06:40:49;;;;;;;;;;;24.20;55.40;;;;;;4934462;29;20021;-82
2022/08/07 06:43:17;;;;;;;;;;;24.50;53.90;;;;;;4946751;29;19917;-84
2022/08/07 06:45:53;;;;;;;;;;;24.90;53.90;;;;;;4933196;29;19911;-84
2022/08/07 06:48:20;;;;;;;;;;;25.20;52.40;;;;;;4926786;28;19954;-84
2022/08/07 06:50:47;;;;;;;;;;;25.60;51.20;;;;;;4920274;29;20013;-83
2022/08/07 06:53:14;;;;;;;;;;;25.80;50.90;;;;;;4935362;28;19910;-83
2022/08/07 06:55:40;;;;;;;;;;;26.00;49.30;;;;;;4933355;29;19914;-84
2022/08/07 06:58:09;;;;;;;;;;;26.30;49.30;;;;;;4928991;29;19910;-85
2022/08/07 07:00:42;;;;;;;;;;;26.50;48.30;;;;;;4938158;28;19999;-84
2022/08/07 07:03:08;;;;;;;;;;;26.80;47.90;;;;;;4933531;29;19969;-83
2022/08/07 07:05:35;;;;;;;;;;;26.90;48.20;;;;;;4933137;29;19918;-84
2022/08/07 07:08:00;;;;;;;;;;;27.00;46.10;;;;;;4949443;29;20002;-82
2022/08/07 07:10:32;;;;;;;;;;;26.80;45.30;;;;;;4932346;29;20030;-84
2022/08/07 07:13:02;;;;;;;;;;;26.50;44.60;;;;;;4933907;29;20017;-81
2022/08/07 07:15:33;;;;;;;;;;;26.30;45.90;;;;;;4933677;29;19925;-84
2022/08/07 07:18:01;;;;;;;;;;;25.90;47.20;;;;;;4914747;29;19922;-83
2022/08/07 07:20:35;;;;;;;;;;;25.60;46.80;;;;;;4933606;29;19923;-83
2022/08/07 07:23:01;;;;;;;;;;;25.50;47.40;;;;;;4923563;29;19918;-84
2022/08/07 07:25:27;;;;;;;;;;;25.40;48.60;;;;;;4929795;29;20815;-84
2022/08/07 07:27:56;;;;;;;;;;;25.60;48.30;;;;;;4930495;29;19911;-85
2022/08/07 07:30:24;;;;;;;;;;;25.60;49.10;;;;;;4947040;29;19918;-83
2022/08/07 07:32:51;;;;;;;;;;;25.90;47.60;;;;;;4933183;29;19963;-83
2022/08/07 07:35:17;;;;;;;;;;;25.90;47.00;;;;;;4966080;28;19913;-82
2022/08/07 07:37:44;;;;;;;;;;;26.00;48.10;;;;;;4952580;28;19915;-84
2022/08/07 07:40:13;;;;;;;;;;;26.00;48.20;;;;;;4934804;29;20013;-84
2022/08/07 07:42:39;;;;;;;;;;;25.80;47.20;;;;;;4934023;29;19917;-83
2022/08/07 07:45:05;;;;;;;;;;;25.80;48.90;;;;;;4954868;28;19910;-84
2022/08/07 07:47:34;;;;;;;;;;;26.00;48.40;;;;;;4967950;28;20001;-80
2022/08/07 07:50:00;;;;;;;;;;;26.10;48.50;;;;;;4949336;29;19961;-85
2022/08/07 07:52:26;;;;;;;;;;;26.30;46.70;;;;;;4962854;28;19915;-82
2022/08/07 07:54:53;;;;;;;;;;;26.20;46.70;;;;;;4948507;28;19911;-85
2022/08/07 07:57:20;;;;;;;;;;;26.40;48.20;;;;;;4952172;28;20001;-82
2022/08/07 07:59:47;;;;;;;;;;;26.10;45.70;;;;;;4943794;28;19997;-85
2022/08/07 08:02:13;;;;;;;;;;;25.90;47.70;;;;;;4949781;29;20432;-85
2022/08/07 08:04:39;;;;;;;;;;;25.80;46.60;;;;;;4948185;28;19969;-84
2022/08/07 08:07:07;;;;;;;;;;;25.80;47.90;;;;;;4941727;29;19915;-84
2022/08/07 08:09:33;;;;;;;;;;;25.60;46.60;;;;;;4917345;29;19959;-83
2022/08/07 08:12:02;;;;;;;;;;;25.50;47.00;;;;;;4931653;29;20001;-84
2022/08/07 08:14:28;;;;;;;;;;;25.20;48.50;;;;;;4932382;29;20512;-84
2022/08/07 08:16:55;;;;;;;;;;;25.00;48.00;;;;;;4959255;28;20045;-84
2022/08/07 08:19:24;;;;;;;;;;;24.60;48.30;;;;;;4968439;28;19918;-84
2022/08/07 08:27:21;;;;;;;;;;;23.90;51.00;;;;;;4966309;28;20590;-84
2022/08/07 08:29:53;;;;;;;;;;;23.80;51.30;;;;;;4935854;29;19957;-85
2022/08/07 08:32:24;;;;;;;;;;;23.60;50.90;;;;;;4949347;29;20467;-84
2022/08/07 08:34:50;;;;;;;;;;;23.60;51.00;;;;;;4959018;28;19910;-85
2022/08/07 08:37:17;;;;;;;;;;;23.50;52.70;;;;;;4936656;29;19911;-85
2022/08/07 08:39:45;;;;;;;;;;;23.30;51.30;;;;;;4932986;29;20001;-84
2022/08/07 08:42:17;;;;;;;;;;;23.30;51.10;;;;;;4919937;29;19919;-83
2022/08/07 08:44:56;;;;;;;;;;;23.20;52.70;;;;;;4950412;28;19910;-84
2022/08/07 08:47:25;;;;;;;;;;;23.20;51.40;;;;;;4947577;28;19922;-85
2022/08/07 08:50:23;;;;;;;;;;;23.10;53.70;;;;;;4948144;28;19910;-83
2022/08/07 08:52:56;;;;;;;;;;;23.20;53.40;;;;;;4919423;29;19915;-86
2022/08/07 08:55:22;;;;;;;;;;;23.20;52.60;;;;;;4935328;28;19911;-85
2022/08/07 08:57:50;;;;;;;;;;;23.10;52.40;;;;;;4951878;28;20225;-85
2022/08/07 09:00:16;;;;;;;;;;;23.10;51.70;;;;;;4934866;29;19933;-85
2022/08/07 09:02:51;;;;;;;;;;;23.10;51.00;;;;;;4915730;29;19929;-84
2022/08/07 09:05:36;;;;;;;;;;;23.10;51.80;;;;;;4932612;28;20328;-84
2022/08/07 09:08:20;;;;;;;;;;;23.00;50.60;;;;;;4934714;29;19914;-84
2022/08/07 09:11:10;;;;;;;;;;;23.00;50.40;;;;;;4951251;28;19914;-83
2022/08/07 09:13:49;;;;;;;;;;;22.90;51.50;;;;;;4923977;29;19911;-85
2022/08/07 09:16:27;;;;;;;;;;;22.90;51.90;;;;;;4939762;29;20012;-85
2022/08/07 09:19:11;;;;;;;;;;;22.80;50.80;;;;;;4950584;28;19910;-83
2022/08/07 09:21:52;;;;;;;;;;;22.80;52.60;;;;;;4943143;29;20546;-83
2022/08/07 09:24:40;;;;;;;;;;;22.80;51.50;;;;;;4915825;29;19911;-85
2022/08/07 09:27:25;;;;;;;;;;;22.80;51.10;;;;;;4934785;28;19911;-83
2022/08/07 09:29:53;;;;;;;;;;;22.80;51.60;;;;;;4947297;28;20258;-83
2022/08/07 09:32:23;;;;;;;;;;;22.70;49.80;;;;;;4945462;29;19919;-84
2022/08/07 09:34:57;;;;;;;;;;;22.70;50.00;;;;;;4946496;28;19914;-85
2022/08/07 09:37:55;;;;;;;;;;;22.80;50.00;;;;;;4945934;28;19911;-84
2022/08/07 09:40:39;;;;;;;;;;;22.70;47.40;;;;;;4921900;29;19977;-86
2022/08/07 09:43:05;;;;;;;;;;;22.70;48.90;;;;;;4946415;28;19958;-85
2022/08/07 09:45:31;;;;;;;;;;;22.60;48.50;;;;;;4933249;29;19964;-84
2022/08/07 09:48:05;;;;;;;;;;;22.60;50.00;;;;;;4934565;29;19910;-85
2022/08/07 09:50:46;;;;;;;;;;;22.60;50.60;;;;;;4950194;29;19949;-85
2022/08/07 09:53:13;;;;;;;;;;;22.60;49.90;;;;;;4930510;29;19918;-85
2022/08/07 09:55:57;;;;;;;;;;;22.60;49.40;;;;;;4931872;28;19958;-84
2022/08/07 09:58:39;;;;;;;;;;;22.60;48.70;;;;;;4947588;28;19910;-85
2022/08/07 10:01:23;;;;;;;;;;;22.60;49.90;;;;;;4959190;28;19917;-83
2022/08/07 10:04:01;;;;;;;;;;;22.50;49.00;;;;;;4936831;29;19911;-86
2022/08/07 10:06:36;;;;;;;;;;;22.60;50.00;;;;;;4944660;28;19918;-84
2022/08/07 10:09:20;;;;;;;;;;;22.60;48.80;;;;;;4925196;29;19925;-85
2022/08/07 10:11:58;;;;;;;;;;;22.60;48.50;;;;;;4940789;29;19950;-83
2022/08/07 10:14:30;;;;;;;;;;;22.60;49.00;;;;;;4946305;28;20366;-83
2022/08/07 10:17:05;;;;;;;;;;;22.50;49.60;;;;;;4934711;28;19980;-84
2022/08/07 10:19:46;;;;;;;;;;;22.50;49.40;;;;;;4934291;29;19992;-86
2022/08/07 10:22:24;;;;;;;;;;;22.50;51.00;;;;;;4944137;29;19918;-84
2022/08/07 10:25:00;;;;;;;;;;;22.50;49.30;;;;;;4913775;29;20013;-85
2022/08/07 10:27:31;;;;;;;;;;;22.50;50.40;;;;;;4945522;28;19970;-85
2022/08/07 10:30:05;;;;;;;;;;;22.60;48.80;;;;;;4946570;28;19918;-84
2022/08/07 10:32:40;;;;;;;;;;;22.60;50.50;;;;;;4965609;28;20345;-83
2022/08/07 10:35:14;;;;;;;;;;;22.70;47.50;;;;;;4953775;28;19914;-86
2022/08/07 10:37:52;;;;;;;;;;;22.70;47.20;;;;;;4943975;28;19914;-84
2022/08/07 10:40:53;;;;;;;;;;;22.60;47.50;;;;;;4949292;28;20029;-85
2022/08/07 10:43:24;;;;;;;;;;;22.70;47.20;;;;;;4930459;29;19910;-83
2022/08/07 10:45:57;;;;;;;;;;;22.70;48.80;;;;;;4945206;29;19992;-85
2022/08/07 10:48:55;;;;;;;;;;;22.80;47.30;;;;;;4922684;28;20009;-86
2022/08/07 10:51:27;;;;;;;;;;;22.80;46.50;;;;;;4935446;29;20353;-85
2022/08/07 10:54:05;;;;;;;;;;;22.80;47.70;;;;;;4933330;29;19915;-84
2022/08/07 10:56:39;;;;;;;;;;;22.80;46.70;;;;;;4940514;29;19918;-83
2022/08/07 10:59:08;;;;;;;;;;;22.80;47.00;;;;;;4951328;28;19914;-86
2022/08/07 11:01:34;;;;;;;;;;;22.80;47.30;;;;;;4957537;28;19917;-84
2022/08/07 11:04:04;;;;;;;;;;;22.80;49.20;;;;;;4930154;29;20551;-84
2022/08/07 11:06:30;;;;;;;;;;;22.90;48.80;;;;;;4921935;29;19910;-83
2022/08/07 11:08:59;;;;;;;;;;;22.90;48.90;;;;;;4930495;29;20325;-86
2022/08/07 11:11:24;;;;;;;;;;;23.00;48.60;;;;;;4949518;28;20423;-84
2022/08/07 11:13:52;;;;;;;;;;;23.00;48.70;;;;;;4934828;29;19937;-84
2022/08/07 11:16:21;;;;;;;;;;;23.00;47.50;;;;;;4934698;29;19910;-85
2022/08/07 11:18:50;;;;;;;;;;;23.00;48.90;;;;;;4917836;29;20404;-86
2022/08/07 11:21:16;;;;;;;;;;;23.00;48.00;;;;;;4948864;28;19910;-84
2022/08/07 11:23:49;;;;;;;;;;;23.00;49.00;;;;;;4938950;28;19930;-85
2022/08/07 11:26:34;;;;;;;;;;;23.00;48.50;;;;;;4952381;29;19911;-85
2022/08/07 11:28:59;;;;;;;;;;;23.20;47.20;;;;;;4937813;28;19970;-84
2022/08/07 11:31:48;;;;;;;;;;;23.20;48.50;;;;;;4963516;28;19918;-84
2022/08/07 11:34:14;;;;;;;;;;;23.20;48.90;;;;;;4945860;28;20353;-85
2022/08/07 11:36:40;;;;;;;;;;;23.30;49.70;;;;;;4957620;28;19918;-87
2022/08/07 11:39:06;;;;;;;;;;;23.40;48.30;;;;;;4934153;28;19950;-85
2022/08/07 11:41:55;;;;;;;;;;;23.50;47.70;;;;;;4961485;28;19985;-84
2022/08/07 11:44:24;;;;;;;;;;;23.60;48.00;;;;;;4933070;29;19910;-84
2022/08/07 11:47:06;;;;;;;;;;;23.70;47.80;;;;;;4942164;28;19910;-83
2022/08/07 11:49:47;;;;;;;;;;;23.70;47.10;;;;;;4942650;29;19941;-82
2022/08/07 11:52:32;;;;;;;;;;;23.80;47.10;;;;;;4941767;28;19921;-85
2022/08/07 11:55:10;;;;;;;;;;;23.80;46.90;;;;;;4944026;28;19933;-83
2022/08/07 11:57:36;;;;;;;;;;;23.80;48.50;;;;;;4935133;28;20285;-85
2022/08/07 12:00:05;;;;;;;;;;;23.80;46.80;;;;;;4946515;28;19910;-85
2022/08/07 12:02:51;;;;;;;;;;;24.00;47.00;;;;;;4952364;29;19911;-85
2022/08/07 12:05:36;;;;;;;;;;;24.10;46.80;;;;;;4935800;29;20342;-84
2022/08/07 12:08:12;;;;;;;;;;;24.30;47.60;;;;;;4931875;29;19921;-84
2022/08/07 12:10:45;;;;;;;;;;;24.40;46.10;;;;;;4937117;29;19914;-84
2022/08/07 12:13:27;;;;;;;;;;;24.60;46.40;;;;;;4948139;28;19921;-85
2022/08/07 12:15:55;;;;;;;;;;;24.70;47.40;;;;;;4944193;29;19921;-83
2022/08/07 12:18:20;;;;;;;;;;;24.80;45.00;;;;;;4948947;28;19911;-83
2022/08/07 12:20:47;;;;;;;;;;;24.70;44.70;;;;;;4954195;28;19964;-85
2022/08/07 12:23:28;;;;;;;;;;;24.70;45.70;;;;;;4952309;29;19921;-84
2022/08/07 12:26:15;;;;;;;;;;;24.70;44.80;;;;;;4952095;28;20288;-84
2022/08/07 12:28:46;;;;;;;;;;;24.60;44.80;;;;;;4949051;28;19921;-85
2022/08/07 12:31:34;;;;;;;;;;;24.70;46.30;;;;;;4942726;29;19944;-86
2022/08/07 12:34:01;;;;;;;;;;;24.60;45.10;;;;;;4939840;29;19911;-82
2022/08/07 12:36:28;;;;;;;;;;;24.70;46.10;;;;;;4956067;28;19969;-84
2022/08/07 12:38:55;;;;;;;;;;;24.90;45.40;;;;;;4949097;28;19997;-83
2022/08/07 12:41:24;;;;;;;;;;;25.00;45.80;;;;;;4907273;29;19933;-86
2022/08/07 12:43:51;;;;;;;;;;;25.20;47.30;;;;;;4947567;28;20326;-85
2022/08/07 12:46:19;;;;;;;;;;;25.40;45.70;;;;;;4950832;29;20037;-84
2022/08/07 12:49:05;;;;;;;;;;;25.70;44.00;;;;;;4928176;29;19965;-86
2022/08/07 12:51:57;;;;;;;;;;;25.90;44.50;;;;;;4959472;28;19948;-87
2022/08/07 12:54:30;;;;;;;;;;;26.10;44.30;;;;;;4945937;29;19966;-85
2022/08/07 12:56:58;;;;;;;;;;;26.40;42.30;;;;;;4947778;28;19934;-85
2022/08/07 12:59:29;;;;;;;;;;;26.30;42.00;;;;;;4935179;29;20001;-85
2022/08/07 13:01:58;;;;;;;;;;;26.30;44.10;;;;;;4932352;29;19921;-84
2022/08/07 13:04:28;;;;;;;;;;;26.20;41.90;;;;;;4954894;28;19918;-84
2022/08/07 13:06:54;;;;;;;;;;;26.20;42.00;;;;;;4951073;28;19911;-84
2022/08/07 13:09:33;;;;;;;;;;;26.20;42.40;;;;;;4931903;29;20013;-84
2022/08/07 13:12:17;;;;;;;;;;;26.10;41.80;;;;;;4938452;29;19922;-84
2022/08/07 13:15:01;;;;;;;;;;;25.90;41.40;;;;;;4931104;29;20266;-84
2022/08/07 13:17:36;;;;;;;;;;;25.90;43.20;;;;;;4966158;28;19916;-85
2022/08/07 13:20:08;;;;;;;;;;;25.90;43.20;;;;;;4947746;28;19912;-84
2022/08/07 13:22:38;;;;;;;;;;;25.90;42.90;;;;;;4947734;29;19965;-82
2022/08/07 13:25:07;;;;;;;;;;;26.00;42.90;;;;;;4946853;29;20409;-83
2022/08/07 13:27:37;;;;;;;;;;;25.80;42.10;;;;;;4947129;28;19927;-84
2022/08/07 13:30:12;;;;;;;;;;;25.80;43.10;;;;;;4931258;29;20331;-83
2022/08/07 13:32:53;;;;;;;;;;;25.70;43.10;;;;;;4947667;28;19914;-84
2022/08/07 13:35:30;;;;;;;;;;;25.80;42.70;;;;;;4964710;28;19915;-85
2022/08/07 13:38:07;;;;;;;;;;;25.60;42.40;;;;;;4931224;29;19911;-83
2022/08/07 13:40:35;;;;;;;;;;;25.60;42.90;;;;;;4950301;28;19965;-85
2022/08/07 13:43:05;;;;;;;;;;;25.50;44.20;;;;;;4933907;28;19922;-81
2022/08/07 13:45:32;;;;;;;;;;;25.50;43.20;;;;;;4942177;28;19996;-84
2022/08/07 13:47:58;;;;;;;;;;;25.60;43.30;;;;;;4934137;28;19930;-83
2022/08/07 13:50:24;;;;;;;;;;;25.50;42.60;;;;;;4950334;28;19914;-83
2022/08/07 13:52:51;;;;;;;;;;;25.50;42.30;;;;;;4949766;28;20266;-84
2022/08/07 13:55:18;;;;;;;;;;;25.50;43.50;;;;;;4947628;28;19917;-84
2022/08/07 13:57:45;;;;;;;;;;;25.40;43.10;;;;;;4938052;28;19910;-84
2022/08/07 14:00:11;;;;;;;;;;;25.40;43.20;;;;;;4931228;29;20477;-84
2022/08/07 14:02:40;;;;;;;;;;;25.60;42.60;;;;;;4900365;29;19914;-85
2022/08/07 14:05:12;;;;;;;;;;;25.50;42.40;;;;;;4902141;29;20390;-83
2022/08/07 14:07:42;;;;;;;;;;;25.50;42.70;;;;;;4931548;29;19910;-85
2022/08/07 14:10:08;;;;;;;;;;;25.40;42.60;;;;;;4960865;28;19965;-81
2022/08/07 14:12:50;;;;;;;;;;;25.30;43.20;;;;;;4933993;29;19926;-82
2022/08/07 14:15:35;;;;;;;;;;;25.20;42.60;;;;;;4949214;28;19910;-83
2022/08/07 14:18:13;;;;;;;;;;;25.30;44.70;;;;;;4949489;28;20153;-84
2022/08/07 14:20:40;;;;;;;;;;;25.30;42.50;;;;;;4936155;29;19961;-83
2022/08/07 14:23:10;;;;;;;;;;;25.50;42.20;;;;;;4943806;28;19910;-84
2022/08/07 14:25:37;;;;;;;;;;;25.60;41.30;;;;;;4933192;29;19911;-85
2022/08/07 14:28:05;;;;;;;;;;;25.50;41.40;;;;;;4915003;29;20041;-84
2022/08/07 14:30:31;;;;;;;;;;;25.30;42.20;;;;;;4919639;29;19928;-83
2022/08/07 14:32:58;;;;;;;;;;;25.30;42.60;;;;;;4954496;28;19972;-84
2022/08/07 14:35:26;;;;;;;;;;;25.20;41.90;;;;;;4943252;29;19982;-86
2022/08/07 14:37:53;;;;;;;;;;;25.10;43.40;;;;;;4949517;28;19915;-84
2022/08/07 14:40:23;;;;;;;;;;;25.10;41.60;;;;;;4947581;29;19970;-84